Time;durP1;ratioP1;P1;durP2;ratioP2;P2;SDS_P1;SDS_P2;PMS_P1;PMS_P2;Temp;Humidity;BMP_temperature;BMP_pressure;BME280_temperature;BME280_humidity;BME280_pressure;Samples;Min_cycle;Max_cycle;Signal;HPM_P1;HPM_P2
2023/03/08 00:01:23;;;;;;;9.57;4.60;;;6.90;88.50;;;;;;10139199;28;20066;-61
2023/03/08 00:06:15;;;;;;;6.97;4.13;;;6.90;88.00;;;;;;10139188;28;20036;-61
2023/03/08 00:11:11;;;;;;;8.25;3.67;;;6.90;88.00;;;;;;10137289;28;20021;-61
2023/03/08 00:16:04;;;;;;;6.90;3.58;;;6.80;88.00;;;;;;10138738;28;20033;-61
2023/03/08 00:21:06;;;;;;;9.65;4.55;;;6.80;87.90;;;;;;10132162;28;20035;-60
2023/03/08 00:25:57;;;;;;;9.25;3.92;;;6.70;88.20;;;;;;10138702;28;20036;-61
2023/03/08 00:31:02;;;;;;;10.65;4.30;;;6.60;88.50;;;;;;10137334;28;20021;-60
2023/03/08 00:35:58;;;;;;;8.98;4.15;;;6.60;89.30;;;;;;10126773;28;20052;-61
2023/03/08 00:40:49;;;;;;;9.07;4.18;;;6.60;88.90;;;;;;10138280;28;20310;-62
2023/03/08 00:45:39;;;;;;;10.30;5.22;;;6.60;89.10;;;;;;10133837;28;20060;-60
2023/03/08 00:50:30;;;;;;;7.78;4.25;;;6.60;89.20;;;;;;10134672;28;20047;-61
2023/03/08 00:55:21;;;;;;;8.20;4.03;;;6.50;89.30;;;;;;10128580;28;20021;-62
2023/03/08 01:00:12;;;;;;;9.52;4.85;;;6.30;89.80;;;;;;10137165;28;20099;-62
2023/03/08 01:05:03;;;;;;;8.73;5.22;;;6.30;90.00;;;;;;10138303;28;20540;-61
2023/03/08 01:09:55;;;;;;;8.70;4.55;;;6.30;90.10;;;;;;10143214;28;20017;-65
2023/03/08 01:14:45;;;;;;;10.68;5.20;;;6.30;90.20;;;;;;10144166;28;20032;-61
2023/03/08 01:19:36;;;;;;;12.38;5.10;;;6.40;90.20;;;;;;10136918;28;20495;-60
2023/03/08 01:24:27;;;;;;;8.50;4.00;;;6.30;90.20;;;;;;10139360;28;20036;-62
2023/03/08 01:29:17;;;;;;;10.05;4.80;;;6.30;90.30;;;;;;10144877;28;20507;-61
2023/03/08 01:34:08;;;;;;;10.18;5.65;;;6.20;90.50;;;;;;10144509;28;20034;-61
2023/03/08 01:39:00;;;;;;;5.97;4.28;;;6.10;90.80;;;;;;10135586;28;20214;-62
2023/03/08 01:43:51;;;;;;;10.30;4.32;;;6.10;91.00;;;;;;10140196;28;21194;-61
2023/03/08 01:48:48;;;;;;;13.00;5.20;;;6.00;91.20;;;;;;10144269;28;20192;-62
2023/03/08 01:53:39;;;;;;;10.93;5.45;;;6.00;91.30;;;;;;10143636;28;20122;-61
2023/03/08 01:58:30;;;;;;;10.95;6.65;;;6.10;91.40;;;;;;10139881;28;20469;-60
2023/03/08 02:03:21;;;;;;;9.70;4.78;;;6.10;91.50;;;;;;10142989;28;20127;-61
2023/03/08 02:08:11;;;;;;;12.63;4.90;;;6.10;91.60;;;;;;10143556;28;20433;-64
2023/03/08 02:13:05;;;;;;;8.48;4.65;;;6.10;91.80;;;;;;10141655;28;20032;-61
2023/03/08 02:17:56;;;;;;;12.88;5.30;;;6.10;91.80;;;;;;10143066;28;20132;-60
2023/03/08 02:22:48;;;;;;;12.63;5.82;;;6.20;91.80;;;;;;10143053;28;20443;-62
2023/03/08 02:27:39;;;;;;;9.18;4.68;;;6.10;91.90;;;;;;10142839;28;20534;-63
2023/03/08 02:32:30;;;;;;;10.88;4.78;;;6.10;92.10;;;;;;10143216;28;20024;-61
2023/03/08 02:37:20;;;;;;;9.80;4.80;;;6.00;92.30;;;;;;10138409;28;20494;-62
2023/03/08 02:42:11;;;;;;;13.38;6.20;;;6.00;92.40;;;;;;10137519;28;20063;-63
2023/03/08 02:47:02;;;;;;;15.18;4.38;;;6.10;92.40;;;;;;10141851;28;20048;-60
2023/03/08 02:51:52;;;;;;;11.88;5.47;;;6.10;92.40;;;;;;10141825;28;20119;-62
2023/03/08 02:56:43;;;;;;;13.25;5.32;;;6.00;92.40;;;;;;10137646;28;20115;-62
2023/03/08 03:01:34;;;;;;;8.43;4.35;;;5.90;92.50;;;;;;10141231;28;20310;-61
2023/03/08 03:06:25;;;;;;;9.20;5.18;;;6.00;92.70;;;;;;10141159;28;20041;-61
2023/03/08 03:11:18;;;;;;;9.43;5.15;;;6.00;92.60;;;;;;10139658;28;20036;-61
2023/03/08 03:16:11;;;;;;;12.20;6.13;;;6.00;92.70;;;;;;10141076;28;20040;-61
2023/03/08 03:21:04;;;;;;;11.82;5.30;;;5.90;92.80;;;;;;10136933;28;20379;-62
2023/03/08 03:25:54;;;;;;;13.18;6.07;;;5.90;93.00;;;;;;10129048;28;20067;-62
2023/03/08 03:30:45;;;;;;;11.68;4.90;;;5.80;93.00;;;;;;10136358;28;20487;-61
2023/03/08 03:35:37;;;;;;;9.93;6.05;;;5.90;93.00;;;;;;10136316;28;20041;-60
2023/03/08 03:40:28;;;;;;;10.65;5.05;;;6.00;93.10;;;;;;10139385;28;20524;-61
2023/03/08 03:45:18;;;;;;;9.50;4.82;;;6.00;93.00;;;;;;10135664;28;20115;-60
2023/03/08 03:50:09;;;;;;;10.77;4.82;;;6.00;93.00;;;;;;10127882;28;20028;-61
2023/03/08 03:55:01;;;;;;;10.35;4.38;;;6.00;93.10;;;;;;10136001;28;20183;-61
2023/03/08 03:59:52;;;;;;;10.07;4.85;;;6.00;93.10;;;;;;10138810;28;20578;-62
2023/03/08 04:04:42;;;;;;;12.00;5.05;;;6.00;93.10;;;;;;10135389;28;20047;-61
2023/03/08 04:09:34;;;;;;;13.10;5.38;;;6.00;93.10;;;;;;10133304;28;20025;-62
2023/03/08 04:14:25;;;;;;;8.77;4.28;;;6.00;93.10;;;;;;10137182;28;20032;-64
2023/03/08 04:19:15;;;;;;;12.60;4.82;;;6.00;93.20;;;;;;10138577;28;20519;-62
2023/03/08 04:24:06;;;;;;;6.63;3.78;;;6.10;93.20;;;;;;10135869;28;20044;-64
2023/03/08 04:28:57;;;;;;;9.32;4.75;;;6.00;93.30;;;;;;10138671;28;20111;-61
2023/03/08 04:33:48;;;;;;;15.95;4.38;;;6.00;93.30;;;;;;10132666;28;20039;-60
2023/03/08 04:38:39;;;;;;;9.75;4.85;;;6.10;93.20;;;;;;10137510;28;20394;-62
2023/03/08 04:43:34;;;;;;;10.93;5.07;;;6.00;93.30;;;;;;10138231;28;20057;-62
2023/03/08 04:48:24;;;;;;;11.02;4.95;;;6.10;93.30;;;;;;10137099;28;20382;-62
2023/03/08 04:53:15;;;;;;;12.63;4.45;;;6.00;93.30;;;;;;10137873;28;20117;-61
2023/03/08 04:58:06;;;;;;;12.35;5.72;;;6.00;93.40;;;;;;10138046;28;20047;-60
2023/03/08 05:02:56;;;;;;;9.25;3.92;;;5.80;93.40;;;;;;10122116;28;20340;-60
2023/03/08 05:07:47;;;;;;;9.18;4.75;;;5.90;93.60;;;;;;10137483;28;20374;-61
2023/03/08 05:12:37;;;;;;;8.95;5.53;;;6.10;93.50;;;;;;10136670;28;20029;-62
2023/03/08 05:17:28;;;;;;;10.85;4.18;;;6.00;93.50;;;;;;10136409;28;20028;-61
2023/03/08 05:22:19;;;;;;;10.07;5.07;;;6.00;93.70;;;;;;10137918;28;20032;-60
2023/03/08 05:27:09;;;;;;;13.38;5.20;;;5.90;93.70;;;;;;10137580;28;20044;-62
2023/03/08 05:32:03;;;;;;;9.88;4.97;;;6.00;93.70;;;;;;10135148;28;20564;-60
2023/03/08 05:36:54;;;;;;;10.02;5.30;;;5.90;93.80;;;;;;10136167;28;20485;-61
2023/03/08 05:41:45;;;;;;;7.57;4.90;;;5.90;93.90;;;;;;10137214;28;20518;-60
2023/03/08 05:46:38;;;;;;;13.02;5.75;;;5.90;93.90;;;;;;10137369;28;20499;-61
2023/03/08 05:51:29;;;;;;;11.52;5.63;;;5.90;94.00;;;;;;10137818;28;20028;-60
2023/03/08 05:56:22;;;;;;;11.25;4.50;;;6.00;94.00;;;;;;10139777;28;20115;-60
2023/03/08 06:01:15;;;;;;;10.63;4.93;;;6.00;94.00;;;;;;10143167;28;20021;-61
2023/03/08 06:06:06;;;;;;;12.20;5.70;;;6.00;94.10;;;;;;10128915;28;20067;-62
2023/03/08 06:10:56;;;;;;;15.43;5.47;;;6.10;94.10;;;;;;10134659;28;20032;-62
2023/03/08 06:15:47;;;;;;;10.05;5.13;;;6.10;94.20;;;;;;10142436;28;20752;-60
2023/03/08 06:20:38;;;;;;;13.63;6.25;;;6.10;94.10;;;;;;10143160;28;20501;-62
2023/03/08 06:25:28;;;;;;;11.93;4.97;;;6.10;94.20;;;;;;10144377;28;20089;-61
2023/03/08 06:30:19;;;;;;;14.07;5.20;;;6.10;94.20;;;;;;10142903;28;20033;-61
2023/03/08 06:35:10;;;;;;;9.45;5.13;;;6.10;94.30;;;;;;10134171;28;20118;-61
2023/03/08 06:40:02;;;;;;;8.98;4.55;;;6.20;94.40;;;;;;10141956;28;20024;-61
2023/03/08 06:44:53;;;;;;;15.35;6.15;;;6.20;94.40;;;;;;10143123;28;20071;-62
2023/03/08 06:49:43;;;;;;;12.70;5.03;;;6.30;94.50;;;;;;10142163;28;20032;-61
2023/03/08 06:54:34;;;;;;;9.23;4.78;;;6.30;94.50;;;;;;10129362;28;20020;-62
2023/03/08 06:59:24;;;;;;;12.27;6.28;;;6.30;94.60;;;;;;10141237;28;20470;-61
2023/03/08 07:04:17;;;;;;;11.65;6.18;;;6.40;94.70;;;;;;10132979;28;20080;-60
2023/03/08 07:09:07;;;;;;;12.85;5.75;;;6.50;94.60;;;;;;10141321;28;20368;-61
2023/03/08 07:13:58;;;;;;;11.70;5.22;;;6.50;94.70;;;;;;10138325;28;20028;-61
2023/03/08 07:18:48;;;;;;;9.32;5.25;;;6.50;94.90;;;;;;10140888;28;20111;-61
2023/03/08 07:23:39;;;;;;;11.95;5.28;;;6.70;94.80;;;;;;10138389;28;20149;-61
2023/03/08 07:28:30;;;;;;;10.18;5.63;;;6.70;94.90;;;;;;10134365;28;20028;-60
2023/03/08 07:33:20;;;;;;;10.52;5.47;;;6.90;95.00;;;;;;10134461;28;20064;-61
2023/03/08 07:38:11;;;;;;;10.48;5.55;;;7.00;95.10;;;;;;10121666;28;20025;-63
2023/03/08 07:43:02;;;;;;;10.43;5.10;;;7.00;95.20;;;;;;10126045;28;20199;-67
2023/03/08 07:47:53;;;;;;;10.18;4.35;;;6.90;95.30;;;;;;10124148;28;20438;-63
2023/03/08 07:52:43;;;;;;;11.70;5.10;;;6.90;95.40;;;;;;10126381;28;20040;-63
2023/03/08 07:57:34;;;;;;;7.30;3.47;;;6.90;95.50;;;;;;10120897;28;20198;-63
2023/03/08 08:02:25;;;;;;;8.10;4.35;;;7.00;95.80;;;;;;10124023;28;20029;-63
2023/03/08 08:07:16;;;;;;;6.82;3.67;;;7.00;96.40;;;;;;10128703;28;20408;-63
2023/03/08 08:12:07;;;;;;;7.28;4.55;;;7.00;96.50;;;;;;10121470;28;20519;-62
2023/03/08 08:16:57;;;;;;;6.22;3.72;;;7.10;96.80;;;;;;10128818;28;20032;-63
2023/03/08 08:21:48;;;;;;;6.70;3.58;;;7.00;97.20;;;;;;10128031;28;20461;-64
2023/03/08 08:26:39;;;;;;;10.07;3.47;;;7.10;97.30;;;;;;10125417;28;20029;-66
2023/03/08 08:31:30;;;;;;;5.68;3.85;;;7.10;97.60;;;;;;10123632;28;20021;-65
2023/03/08 08:36:20;;;;;;;10.38;3.65;;;7.20;98.00;;;;;;10122728;28;20410;-62
2023/03/08 08:41:16;;;;;;;5.47;3.05;;;7.30;98.30;;;;;;10137818;28;20020;-61
2023/03/08 08:46:07;;;;;;;8.07;3.03;;;7.30;98.20;;;;;;10129749;28;20060;-62
2023/03/08 08:50:59;;;;;;;5.72;3.38;;;7.50;98.70;;;;;;10133997;28;20963;-62
2023/03/08 08:55:49;;;;;;;8.35;2.90;;;7.60;98.80;;;;;;10121530;28;20249;-63
2023/03/08 09:00:40;;;;;;;7.93;3.70;;;7.90;98.80;;;;;;10137940;28;20313;-63
2023/03/08 09:05:32;;;;;;;6.13;2.88;;;8.10;98.90;;;;;;10126690;28;20132;-62
2023/03/08 09:10:24;;;;;;;7.88;3.28;;;8.10;99.30;;;;;;10125994;28;20082;-62
2023/03/08 09:15:15;;;;;;;7.20;3.22;;;8.40;99.40;;;;;;10138421;28;20108;-64
2023/03/08 09:20:10;;;;;;;6.63;2.92;;;8.40;99.60;;;;;;10135608;28;20488;-66
2023/03/08 09:25:00;;;;;;;4.50;2.40;;;8.50;99.70;;;;;;10131563;28;20043;-64
2023/03/08 09:29:51;;;;;;;8.07;3.22;;;8.70;99.90;;;;;;10141377;28;20039;-64
2023/03/08 09:34:42;;;;;;;2.75;1.55;;;8.70;99.90;;;;;;10143413;28;20028;-64
2023/03/08 09:39:32;;;;;;;2.03;1.80;;;8.80;99.90;;;;;;10144359;28;20033;-61
2023/03/08 09:44:44;;;;;;;5.07;2.90;;;9.00;99.90;;;;;;10139323;28;20299;-62
2023/03/08 09:49:37;;;;;;;2.90;2.00;;;9.20;99.90;;;;;;10144974;28;20028;-64
2023/03/08 09:54:29;;;;;;;2.28;1.75;;;9.40;99.90;;;;;;10144860;28;20086;-65
2023/03/08 09:59:25;;;;;;;3.42;1.90;;;9.70;99.90;;;;;;10156790;28;20020;-64
2023/03/08 10:04:21;;;;;;;3.47;2.05;;;9.90;99.90;;;;;;10143404;28;20150;-63
2023/03/08 10:09:30;;;;;;;3.67;1.92;;;10.10;99.90;;;;;;10143253;28;20426;-63
2023/03/08 10:14:27;;;;;;;3.33;1.80;;;10.20;99.90;;;;;;10131197;28;20082;-62
2023/03/08 10:19:43;;;;;;;4.60;1.60;;;10.20;99.90;;;;;;10139802;28;20020;-61
2023/03/08 10:24:56;;;;;;;3.35;1.83;;;10.10;99.90;;;;;;10123170;28;20459;-65
2023/03/08 10:29:58;;;;;;;2.53;1.65;;;10.40;99.90;;;;;;10124381;28;20029;-64
2023/03/08 10:34:49;;;;;;;5.15;1.63;;;10.80;99.90;;;;;;10130028;28;20434;-63
2023/03/08 10:39:53;;;;;;;1.83;1.38;;;11.10;99.90;;;;;;10127111;28;20085;-61
2023/03/08 10:44:51;;;;;;;3.28;0.82;;;11.60;99.90;;;;;;10125085;28;20438;-61
2023/03/08 10:49:43;;;;;;;1.10;0.80;;;12.00;99.90;;;;;;10126010;28;20055;-63
2023/03/08 10:54:34;;;;;;;0.82;0.47;;;11.90;99.90;;;;;;10123159;28;20017;-64
2023/03/08 10:59:31;;;;;;;0.88;0.55;;;11.90;99.90;;;;;;10128113;28;20070;-61
2023/03/08 11:04:25;;;;;;;1.33;0.60;;;11.70;99.90;;;;;;10135677;28;20052;-63
2023/03/08 11:09:20;;;;;;;2.45;0.80;;;11.60;99.90;;;;;;10129412;28;20037;-64
2023/03/08 11:14:11;;;;;;;1.38;0.85;;;11.50;99.90;;;;;;10127574;28;20017;-62
2023/03/08 11:19:15;;;;;;;2.28;0.65;;;11.40;99.90;;;;;;10133532;28;20042;-64
2023/03/08 11:24:11;;;;;;;0.93;0.90;;;11.40;99.90;;;;;;10134027;28;20071;-61
2023/03/08 11:29:20;;;;;;;6.70;1.67;;;11.40;99.90;;;;;;10135526;28;20101;-63
2023/03/08 11:34:37;;;;;;;0.98;0.68;;;11.40;99.90;;;;;;10130580;28;20029;-64
2023/03/08 11:39:37;;;;;;;2.55;1.00;;;11.40;99.90;;;;;;10130422;28;20099;-63
2023/03/08 11:44:56;;;;;;;1.00;0.50;;;11.40;99.90;;;;;;10130776;28;20055;-62
2023/03/08 11:50:04;;;;;;;1.38;0.70;;;11.50;99.90;;;;;;10128403;28;20367;-62
2023/03/08 11:54:55;;;;;;;1.23;0.80;;;11.50;99.90;;;;;;10136369;28;20035;-64
2023/03/08 12:00:09;;;;;;;1.23;0.70;;;11.60;99.90;;;;;;10137391;28;20027;-63
2023/03/08 12:05:04;;;;;;;1.45;0.60;;;11.70;99.90;;;;;;10131495;28;20028;-62
2023/03/08 12:10:07;;;;;;;2.92;0.90;;;11.70;99.90;;;;;;10132703;28;20421;-62
2023/03/08 12:15:10;;;;;;;1.42;0.47;;;11.80;99.90;;;;;;10137215;28;20231;-61
2023/03/08 12:20:06;;;;;;;0.60;0.50;;;11.90;99.90;;;;;;10133054;28;20017;-63
2023/03/08 12:25:03;;;;;;;;;;;11.90;99.90;;;;;;10135558;28;20469;-64
2023/03/08 12:30:03;;;;;;;0.70;0.50;;;12.00;99.90;;;;;;10131865;28;19967;-60
2023/03/08 12:35:29;;;;;;;0.57;0.57;;;12.00;99.90;;;;;;10127051;28;20512;-62
2023/03/08 12:40:41;;;;;;;0.75;0.45;;;12.10;99.90;;;;;;10114211;28;20036;-62
2023/03/08 12:45:32;;;;;;;0.30;0.20;;;12.20;99.90;;;;;;10135187;28;20053;-60
2023/03/08 12:50:23;;;;;;;0.68;0.40;;;12.30;99.90;;;;;;10137541;28;20021;-61
2023/03/08 12:55:30;;;;;;;0.43;0.20;;;12.30;99.90;;;;;;10136078;28;20040;-61
2023/03/08 13:00:34;;;;;;;3.95;0.57;;;12.40;99.90;;;;;;10137237;28;20029;-61
2023/03/08 13:05:32;;;;;;;1.10;0.43;;;12.40;99.90;;;;;;10139499;28;20033;-63
2023/03/08 13:10:32;;;;;;;2.00;0.43;;;12.50;99.90;;;;;;10133622;28;20063;-62
2023/03/08 13:15:24;;;;;;;0.57;0.57;;;12.50;99.90;;;;;;10138206;28;20035;-61
2023/03/08 13:20:23;;;;;;;0.75;0.32;;;12.50;99.90;;;;;;10128824;28;20419;-62
2023/03/08 13:25:32;;;;;;;0.88;0.40;;;12.50;99.90;;;;;;10136258;28;20243;-65
2023/03/08 13:30:30;;;;;;;0.75;0.57;;;12.60;99.90;;;;;;10132864;28;20119;-63
2023/03/08 13:35:21;;;;;;;1.02;0.52;;;12.60;99.90;;;;;;10131993;28;20056;-63
2023/03/08 13:40:20;;;;;;;0.38;0.28;;;12.80;99.90;;;;;;10130033;28;20029;-63
2023/03/08 13:45:17;;;;;;;1.48;0.40;;;12.80;99.90;;;;;;10134168;28;20053;-63
2023/03/08 13:50:20;;;;;;;0.65;0.40;;;12.90;99.90;;;;;;10136284;28;20078;-63
2023/03/08 13:55:20;;;;;;;1.20;0.50;;;13.00;99.90;;;;;;10132846;28;20272;-63
2023/03/08 14:00:34;;;;;;;1.13;0.40;;;13.10;99.90;;;;;;10132555;28;20060;-65
2023/03/08 14:05:31;;;;;;;0.70;0.50;;;13.10;99.90;;;;;;10120349;28;20085;-64
2023/03/08 14:10:28;;;;;;;0.98;0.40;;;13.30;99.90;;;;;;10131252;28;20066;-63
2023/03/08 14:15:20;;;;;;;1.70;0.55;;;13.40;99.90;;;;;;10136268;28;20128;-63
2023/03/08 14:20:23;;;;;;;0.57;0.47;;;13.50;99.90;;;;;;10129015;28;20016;-63
2023/03/08 14:25:29;;;;;;;0.75;0.50;;;13.60;99.90;;;;;;10135159;28;20067;-64
2023/03/08 14:30:23;;;;;;;1.25;0.55;;;13.60;99.90;;;;;;10129885;28;20046;-65
2023/03/08 14:35:24;;;;;;;0.57;0.50;;;13.60;99.90;;;;;;10129361;28;20024;-62
2023/03/08 14:40:32;;;;;;;1.30;0.40;;;13.70;99.90;;;;;;10130983;28;20016;-64
2023/03/08 14:45:29;;;;;;;0.40;0.40;;;13.70;99.90;;;;;;10131298;28;20045;-65
2023/03/08 14:50:29;;;;;;;0.50;0.40;;;13.80;99.90;;;;;;10135187;28;20029;-61
2023/03/08 14:55:21;;;;;;;0.77;0.30;;;13.70;99.90;;;;;;10132526;28;20332;-64
2023/03/08 15:00:14;;;;;;;1.58;0.50;;;13.70;99.90;;;;;;10128469;28;20021;-61
2023/03/08 15:05:10;;;;;;;0.47;0.30;;;13.70;99.90;;;;;;10127490;28;20072;-64
2023/03/08 15:10:03;;;;;;;0.98;0.35;;;13.70;99.90;;;;;;10135252;28;20465;-66
2023/03/08 15:14:54;;;;;;;1.35;0.47;;;13.90;99.90;;;;;;10125405;28;20064;-66
2023/03/08 15:19:44;;;;;;;1.10;0.47;;;13.80;99.90;;;;;;10132014;28;20032;-63
2023/03/08 15:24:35;;;;;;;1.55;0.50;;;13.90;99.90;;;;;;10131434;28;20317;-65
2023/03/08 15:29:31;;;;;;;1.08;0.85;;;13.90;99.90;;;;;;10133886;28;20032;-62
2023/03/08 15:34:23;;;;;;;0.40;0.38;;;13.90;99.90;;;;;;10129326;28;20036;-66
2023/03/08 15:39:14;;;;;;;0.90;0.75;;;13.80;99.90;;;;;;10128435;28;20018;-66
2023/03/08 15:44:05;;;;;;;0.88;0.25;;;13.70;99.90;;;;;;10130339;28;20068;-63
2023/03/08 15:48:55;;;;;;;0.45;0.40;;;13.70;99.90;;;;;;10131491;28;20028;-63
2023/03/08 15:53:47;;;;;;;0.80;0.65;;;13.70;99.90;;;;;;10131428;28;20391;-62
2023/03/08 15:58:38;;;;;;;1.67;0.70;;;13.70;99.90;;;;;;10128457;28;20829;-64
2023/03/08 16:03:29;;;;;;;0.82;0.40;;;13.70;99.90;;;;;;10126286;28;20038;-65
2023/03/08 16:08:23;;;;;;;0.20;0.20;;;13.70;99.90;;;;;;10130671;28;20436;-68
2023/03/08 16:13:16;;;;;;;0.80;0.45;;;13.70;99.90;;;;;;10130602;28;20016;-66
2023/03/08 16:18:07;;;;;;;2.47;0.40;;;13.80;99.90;;;;;;10134167;28;20495;-62
2023/03/08 16:22:57;;;;;;;0.43;0.40;;;14.00;99.90;;;;;;10129331;28;20044;-65
2023/03/08 16:27:48;;;;;;;1.52;0.35;;;14.30;99.90;;;;;;10129461;28;20321;-65
2023/03/08 16:32:40;;;;;;;0.40;0.30;;;16.00;99.90;;;;;;10131197;28;20111;-65
2023/03/08 16:37:30;;;;;;;0.60;0.32;;;15.30;99.90;;;;;;10129825;28;20021;-65
2023/03/08 16:42:21;;;;;;;3.85;0.45;;;14.70;99.90;;;;;;10130058;28;20035;-63
2023/03/08 16:47:12;;;;;;;0.95;0.40;;;14.50;99.90;;;;;;10126096;28;20048;-65
2023/03/08 16:52:03;;;;;;;0.32;0.30;;;14.40;99.90;;;;;;10128075;28;20028;-61
2023/03/08 16:56:54;;;;;;;0.30;0.20;;;14.10;99.90;;;;;;10127481;28;20012;-66
2023/03/08 17:01:46;;;;;;;0.45;0.30;;;14.00;99.90;;;;;;10118530;28;20145;-64
2023/03/08 17:06:37;;;;;;;0.88;0.43;;;13.80;99.90;;;;;;10131054;28;20037;-62
2023/03/08 17:11:30;;;;;;;1.60;0.70;;;13.70;99.90;;;;;;10125276;28;20049;-62
2023/03/08 17:16:23;;;;;;;1.77;0.75;;;13.60;99.90;;;;;;10122815;28;20096;-65
2023/03/08 17:21:14;;;;;;;0.50;0.40;;;13.40;99.90;;;;;;10125848;28;20401;-62
2023/03/08 17:26:07;;;;;;;2.33;0.60;;;13.30;99.90;;;;;;10122943;28;20036;-62
2023/03/08 17:30:58;;;;;;;4.43;1.35;;;13.30;99.90;;;;;;10125737;28;20323;-65
2023/03/08 17:35:55;;;;;;;1.65;0.80;;;13.30;99.90;;;;;;10118047;28;20087;-61
2023/03/08 17:40:45;;;;;;;1.30;0.60;;;13.30;99.90;;;;;;10125511;28;20327;-61
2023/03/08 17:45:36;;;;;;;1.13;0.93;;;13.30;99.90;;;;;;10122483;28;20416;-62
2023/03/08 17:50:30;;;;;;;0.50;0.40;;;13.30;99.90;;;;;;10127767;28;20017;-63
2023/03/08 17:55:21;;;;;;;0.98;0.60;;;13.30;99.90;;;;;;10129202;28;20029;-63
2023/03/08 18:00:12;;;;;;;1.85;0.50;;;13.20;99.90;;;;;;10132582;28;20024;-63
2023/03/08 18:05:04;;;;;;;0.30;0.30;;;13.20;99.90;;;;;;10130761;28;20437;-62
2023/03/08 18:09:55;;;;;;;1.70;0.60;;;13.10;99.90;;;;;;10135110;28;20032;-65
2023/03/08 18:14:49;;;;;;;0.25;0.25;;;13.20;99.90;;;;;;10133615;28;20422;-64
2023/03/08 18:19:40;;;;;;;1.20;0.57;;;13.10;99.90;;;;;;10140409;28;20040;-64
2023/03/08 18:24:31;;;;;;;1.42;0.50;;;13.10;99.90;;;;;;10134739;28;20415;-64
2023/03/08 18:29:22;;;;;;;0.70;0.70;;;13.00;99.90;;;;;;10135142;28;20162;-61
2023/03/08 18:34:14;;;;;;;3.55;0.60;;;13.00;99.90;;;;;;10130918;28;20035;-62
2023/03/08 18:39:06;;;;;;;1.85;0.60;;;13.00;99.90;;;;;;10132212;28;20021;-62
2023/03/08 18:43:58;;;;;;;1.33;0.50;;;12.90;99.90;;;;;;10128965;28;20045;-63
2023/03/08 18:48:50;;;;;;;0.63;0.60;;;12.80;99.90;;;;;;10126883;28;20040;-61
2023/03/08 18:53:41;;;;;;;2.28;0.95;;;12.70;99.90;;;;;;10131107;28;20039;-60
2023/03/08 18:58:32;;;;;;;1.25;0.60;;;12.80;99.90;;;;;;10128281;28;20032;-62
2023/03/08 19:03:24;;;;;;;2.38;0.60;;;12.80;99.90;;;;;;10126615;28;20036;-61
2023/03/08 19:08:15;;;;;;;0.70;0.47;;;12.80;99.90;;;;;;10129515;28;20370;-62
2023/03/08 19:13:05;;;;;;;1.73;0.80;;;12.80;99.90;;;;;;10129957;28;20381;-63
2023/03/08 19:17:57;;;;;;;1.05;0.60;;;12.80;99.90;;;;;;10128510;28;20044;-62
2023/03/08 19:22:48;;;;;;;1.50;0.63;;;12.80;99.90;;;;;;10129312;28;20070;-61
2023/03/08 19:27:38;;;;;;;0.60;0.50;;;12.70;99.90;;;;;;10129353;28;20453;-63
2023/03/08 19:32:29;;;;;;;0.20;0.17;;;12.80;99.90;;;;;;10123839;28;20150;-63
2023/03/08 19:37:20;;;;;;;1.40;0.68;;;12.70;99.90;;;;;;10131853;28;20139;-64
2023/03/08 19:42:13;;;;;;;1.73;0.75;;;12.80;99.90;;;;;;10138225;28;20024;-63
2023/03/08 19:47:04;;;;;;;2.10;0.80;;;12.90;99.90;;;;;;10140896;28;20459;-63
2023/03/08 19:51:56;;;;;;;0.60;0.50;;;13.00;99.90;;;;;;10137854;28;20128;-62
2023/03/08 19:56:47;;;;;;;2.80;1.02;;;13.20;99.90;;;;;;10138083;28;20391;-60
2023/03/08 20:01:38;;;;;;;0.95;0.60;;;13.20;99.90;;;;;;10134523;28;20438;-64
2023/03/08 20:06:40;;;;;;;1.42;0.70;;;13.20;99.90;;;;;;10130884;28;20174;-63
2023/03/08 20:11:31;;;;;;;0.43;0.40;;;13.30;99.90;;;;;;9218165;28;10000664;-63
2023/03/08 20:16:23;;;;;;;2.28;0.68;;;13.30;99.90;;;;;;10132419;28;20048;-64
2023/03/08 20:21:14;;;;;;;1.85;0.68;;;13.30;99.90;;;;;;10139878;28;20074;-66
2023/03/08 20:26:07;;;;;;;1.13;0.50;;;13.40;99.90;;;;;;9225844;28;10000941;-63
2023/03/08 20:30:58;;;;;;;2.25;0.55;;;13.40;99.90;;;;;;9241692;28;10000593;-62
2023/03/08 20:35:58;;;;;;;2.57;0.70;;;13.40;99.90;;;;;;9391033;28;10001441;-62
2023/03/08 20:41:08;;;;;;;1.15;0.50;;;13.20;99.90;;;;;;10110527;28;20104;-64
2023/03/08 20:46:04;;;;;;;1.23;0.90;;;13.20;99.90;;;;;;10117207;28;20061;-66
2023/03/08 20:50:59;;;;;;;3.05;1.00;;;13.20;99.90;;;;;;10122848;28;20031;-63
2023/03/08 20:55:49;;;;;;;1.20;0.73;;;13.30;99.90;;;;;;10124749;28;20051;-66
2023/03/08 21:00:40;;;;;;;2.00;0.70;;;13.40;99.90;;;;;;10108287;28;20467;-65
2023/03/08 21:05:33;;;;;;;1.77;0.70;;;13.40;99.90;;;;;;10103839;28;20041;-63
2023/03/08 21:10:23;;;;;;;1.58;0.95;;;13.40;99.90;;;;;;10101170;28;20116;-65
2023/03/08 21:15:14;;;;;;;3.28;0.80;;;13.50;99.90;;;;;;10099604;28;20456;-63
2023/03/08 21:20:07;;;;;;;2.22;0.90;;;13.50;99.90;;;;;;10096953;28;20037;-65
2023/03/08 21:24:58;;;;;;;1.42;0.95;;;13.60;99.90;;;;;;10100213;28;20111;-60
2023/03/08 21:29:49;;;;;;;2.90;0.88;;;13.70;99.90;;;;;;10109329;28;20098;-63
2023/03/08 21:34:39;;;;;;;1.20;0.90;;;13.70;99.90;;;;;;10115750;28;20040;-64
2023/03/08 21:39:31;;;;;;;2.28;0.70;;;13.90;99.90;;;;;;10123250;28;20559;-64
2023/03/08 21:44:21;;;;;;;3.38;1.10;;;14.00;99.90;;;;;;10128753;28;20142;-64
2023/03/08 21:49:19;;;;;;;2.90;1.00;;;14.00;99.90;;;;;;10139402;28;20016;-64
2023/03/08 21:54:10;;;;;;;3.85;1.17;;;14.10;99.90;;;;;;10134461;28;20029;-64
2023/03/08 21:59:00;;;;;;;2.67;0.90;;;14.10;99.90;;;;;;10124879;28;20068;-63
2023/03/08 22:03:52;;;;;;;4.55;1.30;;;14.20;99.90;;;;;;10112739;28;20068;-64
2023/03/08 22:08:42;;;;;;;1.63;1.00;;;14.20;99.90;;;;;;10139694;28;20105;-62
2023/03/08 22:13:33;;;;;;;3.80;1.05;;;13.90;99.90;;;;;;10128219;28;20121;-62
2023/03/08 22:18:24;;;;;;;3.05;0.90;;;13.60;99.90;;;;;;10126623;28;20032;-62
2023/03/08 22:23:15;;;;;;;2.90;1.33;;;13.50;99.90;;;;;;10144273;28;20024;-62
2023/03/08 22:28:06;;;;;;;4.25;1.50;;;13.40;99.90;;;;;;10143685;28;20050;-64
2023/03/08 22:32:56;;;;;;;3.67;1.40;;;13.30;99.90;;;;;;10135966;28;20390;-64
2023/03/08 22:37:47;;;;;;;1.75;0.98;;;13.30;99.90;;;;;;10143801;28;20025;-62
2023/03/08 22:42:39;;;;;;;1.77;0.90;;;13.20;99.90;;;;;;10101539;28;20037;-63
2023/03/08 22:47:30;;;;;;;3.08;0.90;;;13.30;99.90;;;;;;10103357;28;20063;-63
2023/03/08 22:52:20;;;;;;;0.73;0.55;;;13.30;99.90;;;;;;10102671;28;20021;-64
2023/03/08 22:57:12;;;;;;;1.92;0.68;;;13.40;99.90;;;;;;10128621;28;20368;-62
2023/03/08 23:02:03;;;;;;;1.17;0.60;;;13.40;99.90;;;;;;10121398;28;20538;-63
2023/03/08 23:06:54;;;;;;;0.70;0.45;;;13.30;99.90;;;;;;10139421;28;20125;-62
2023/03/08 23:11:45;;;;;;;3.97;2.45;;;13.20;99.90;;;;;;10109473;28;20381;-61
2023/03/08 23:16:40;;;;;;;1.75;1.33;;;13.00;99.90;;;;;;10140400;28;20133;-63
2023/03/08 23:21:32;;;;;;;3.33;0.90;;;12.90;99.90;;;;;;10141712;28;20158;-62
2023/03/08 23:26:25;;;;;;;1.17;0.68;;;12.70;99.90;;;;;;10139691;28;20036;-60
2023/03/08 23:31:22;;;;;;;0.75;0.60;;;12.70;99.90;;;;;;10098859;28;20105;-62
2023/03/08 23:36:15;;;;;;;2.30;0.75;;;12.70;99.90;;;;;;10101090;28;20580;-63
2023/03/08 23:41:08;;;;;;;1.30;0.40;;;12.70;99.90;;;;;;10117776;28;20032;-63
2023/03/08 23:46:03;;;;;;;2.53;0.60;;;12.50;99.90;;;;;;10119387;28;20048;-62
2023/03/08 23:50:54;;;;;;;0.53;0.47;;;12.60;99.90;;;;;;10126323;28;20455;-62
2023/03/08 23:55:44;;;;;;;2.13;0.60;;;12.70;99.90;;;;;;10122309;28;20116;-63
